Time;durP1;ratioP1;P1;durP2;ratioP2;P2;SDS_P1;SDS_P2;PMS_P1;PMS_P2;Temp;Humidity;BMP_temperature;BMP_pressure;BME280_temperature;BME280_humidity;BME280_pressure;Samples;Min_cycle;Max_cycle;Signal;HPM_P1;HPM_P2
2023/04/17 00:00:49;;;;;;;51.43;28.57;;;;;;;6.25;100.00;102062.81;4974372;28;20109;-72
2023/04/17 00:03:15;;;;;;;54.83;30.00;;;;;;;6.19;100.00;102061.44;4966009;28;20968;-72
2023/04/17 00:05:45;;;;;;;55.75;31.88;;;;;;;6.20;100.00;102063.13;4980478;28;20117;-74
2023/04/17 00:08:11;;;;;;;50.05;29.52;;;;;;;6.21;100.00;102064.00;4979205;28;20050;-74
2023/04/17 00:10:36;;;;;;;57.17;30.58;;;;;;;6.16;100.00;102061.66;4970673;28;20125;-74
2023/04/17 00:13:02;;;;;;;45.37;27.87;;;;;;;6.17;100.00;102063.34;4968145;28;20181;-73
2023/04/17 00:15:27;;;;;;;49.37;28.63;;;;;;;6.14;100.00;102052.94;4977200;28;20034;-73
2023/04/17 00:17:52;;;;;;;56.33;30.47;;;;;;;6.12;100.00;102060.13;4976729;28;20066;-75
2023/04/17 00:20:18;;;;;;;63.13;33.50;;;;;;;6.10;100.00;102057.56;4965988;28;20045;-75
2023/04/17 00:22:43;;;;;;;62.60;33.50;;;;;;;6.07;100.00;102057.78;4971771;28;20042;-75
2023/04/17 00:25:11;;;;;;;61.97;32.03;;;;;;;6.04;100.00;102051.81;4975547;28;20023;-74
2023/04/17 00:27:37;;;;;;;57.90;32.00;;;;;;;6.02;100.00;102051.09;4997303;28;20105;-75
2023/04/17 00:30:03;;;;;;;58.22;30.80;;;;;;;5.99;100.00;102044.19;4994731;28;20027;-72
2023/04/17 00:32:28;;;;;;;57.20;32.70;;;;;;;6.00;100.00;102050.34;4990355;28;20038;-75
2023/04/17 00:34:54;;;;;;;70.65;35.72;;;;;;;6.03;100.00;102056.28;4965022;28;20943;-73
2023/04/17 00:37:20;;;;;;;64.45;34.40;;;;;;;6.06;100.00;102050.81;4969028;28;20058;-73
2023/04/17 00:39:45;;;;;;;54.27;32.23;;;;;;;6.07;100.00;102056.94;4958342;28;20423;-74
2023/04/17 00:42:11;;;;;;;55.60;30.23;;;;;;;6.05;100.00;102053.53;4964227;28;20117;-74
2023/04/17 00:44:36;;;;;;;56.27;30.43;;;;;;;6.01;100.00;102062.63;4975460;28;20039;-74
2023/04/17 00:47:02;;;;;;;54.67;29.57;;;;;;;5.91;100.00;102042.00;4972116;28;20030;-72
2023/04/17 00:49:28;;;;;;;53.95;32.35;;;;;;;5.96;100.00;102065.59;4983227;28;20546;-74
2023/04/17 00:51:53;;;;;;;;;;;;;;;5.95;100.00;102063.03;4976804;28;20054;-75
2023/04/17 00:54:21;;;;;;;54.08;29.75;;;;;;;5.93;100.00;102056.00;4968592;28;20694;-74
2023/04/17 00:56:49;;;;;;;50.92;30.05;;;;;;;5.90;100.00;102058.03;4983969;28;20042;-74
2023/04/17 00:59:16;;;;;;;51.33;29.27;;;;;;;5.91;100.00;102067.66;4985833;28;20137;-73
2023/04/17 01:01:42;;;;;;;46.45;27.42;;;;;;;5.88;100.00;102058.13;4986117;28;20041;-74
2023/04/17 01:04:08;;;;;;;64.45;33.95;;;;;;;5.90;100.00;102052.72;4968216;28;20034;-74
2023/04/17 01:06:35;;;;;;;70.45;33.92;;;;;;;5.89;100.00;102054.50;5001993;28;20084;-74
2023/04/17 01:09:00;;;;;;;;;;;;;;;5.91;100.00;102055.25;4998221;28;20042;-73
2023/04/17 01:11:27;;;;;;;67.38;34.67;;;;;;;5.83;100.00;102060.22;4969808;28;19920;-73
2023/04/17 01:13:52;;;;;;;80.28;38.35;;;;;;;5.84;100.00;102066.38;4969323;28;20550;-73
2023/04/17 01:16:19;;;;;;;72.75;36.00;;;;;;;5.86;100.00;102070.63;4973431;28;20038;-75
2023/04/17 01:18:48;;;;;;;84.13;37.45;;;;;;;5.89;100.00;102065.09;4983777;28;20584;-71
2023/04/17 01:21:14;;;;;;;76.40;37.95;;;;;;;5.90;100.00;102074.78;4979886;28;20034;-74
2023/04/17 01:23:45;;;;;;;67.03;36.88;;;;;;;5.90;100.00;102077.44;4975704;28;20038;-72
2023/04/17 01:26:15;;;;;;;72.38;35.75;;;;;;;5.90;100.00;102071.28;4967310;28;20523;-72
2023/04/17 01:28:41;;;;;;;70.60;37.10;;;;;;;5.88;100.00;102068.72;4974423;28;20088;-74
2023/04/17 01:31:06;;;;;;;68.77;37.50;;;;;;;5.87;100.00;102076.75;4985266;28;20556;-74
2023/04/17 01:33:31;;;;;;;81.67;41.57;;;;;;;5.85;100.00;102070.69;4960609;28;20236;-75
2023/04/17 01:35:57;;;;;;;76.13;38.23;;;;;;;5.84;100.00;102072.50;4960391;28;20069;-74
2023/04/17 01:38:22;;;;;;;78.80;38.63;;;;;;;5.81;100.00;102069.22;4999137;28;20033;-73
2023/04/17 01:40:47;;;;;;;64.73;34.73;;;;;;;5.80;100.00;102067.50;4964500;28;20050;-74
2023/04/17 01:43:13;;;;;;;67.33;34.83;;;;;;;5.77;100.00;102059.75;4969948;28;20033;-73
2023/04/17 01:45:38;;;;;;;77.70;38.23;;;;;;;5.75;100.00;102066.97;4971123;28;20035;-75
2023/04/17 01:48:03;;;;;;;71.47;36.30;;;;;;;5.71;100.00;102066.28;4986653;28;20030;-73
2023/04/17 01:50:29;;;;;;;76.80;37.42;;;;;;;5.64;100.00;102064.97;4992423;28;20031;-73
2023/04/17 01:52:54;;;;;;;66.13;35.80;;;;;;;5.66;100.00;102057.78;4961764;28;20039;-71
2023/04/17 01:55:19;;;;;;;67.20;36.40;;;;;;;5.62;100.00;102064.22;4973108;28;20034;-72
2023/04/17 01:57:46;;;;;;;72.10;34.90;;;;;;;5.60;100.00;102059.06;4974281;28;20027;-71
2023/04/17 02:00:11;;;;;;;82.05;39.83;;;;;;;5.57;100.00;102059.25;4961468;28;20073;-73
2023/04/17 02:02:41;;;;;;;80.70;39.33;;;;;;;5.54;100.00;102058.59;4977594;28;20463;-73
2023/04/17 02:05:07;;;;;;;71.50;37.05;;;;;;;5.51;100.00;102064.94;4976432;28;20019;-75
2023/04/17 02:07:32;;;;;;;70.40;35.20;;;;;;;5.45;100.00;102060.00;4961083;28;20392;-74
2023/04/17 02:09:57;;;;;;;70.30;36.30;;;;;;;5.39;100.00;102061.25;4966967;28;20400;-73
2023/04/17 02:12:23;;;;;;;65.70;34.20;;;;;;;5.41;100.00;102069.13;4993588;28;20057;-76
2023/04/17 02:14:49;;;;;;;64.80;32.47;;;;;;;5.37;100.00;102072.91;4978334;28;20034;-70
2023/04/17 02:17:16;;;;;;;80.22;38.08;;;;;;;5.42;100.00;102071.66;4966551;28;20086;-74
2023/04/17 02:19:42;;;;;;;68.18;36.47;;;;;;;5.40;100.00;102072.69;4980876;28;20427;-74
2023/04/17 02:22:07;;;;;;;85.37;39.33;;;;;;;5.38;100.00;102077.25;4983774;28;20042;-75
2023/04/17 02:24:32;;;;;;;66.73;35.83;;;;;;;5.37;100.00;102080.84;4992719;28;20064;-74
2023/04/17 02:27:00;;;;;;;86.47;41.22;;;;;;;5.36;100.00;102079.13;4996085;28;20034;-72
2023/04/17 02:29:26;;;;;;;81.43;40.35;;;;;;;5.40;100.00;102075.34;4972612;28;20037;-73
2023/04/17 02:31:51;;;;;;;93.78;43.45;;;;;;;5.40;100.00;102078.84;4954482;28;20031;-74
2023/04/17 02:34:17;;;;;;;74.53;38.70;;;;;;;5.38;100.00;102079.88;4971602;28;20477;-74
2023/04/17 02:36:42;;;;;;;92.80;42.63;;;;;;;5.40;100.00;102078.00;4955996;28;20042;-71
2023/04/17 02:39:08;;;;;;;86.72;42.33;;;;;;;5.35;100.00;102078.28;4976691;28;20546;-74
2023/04/17 02:41:33;;;;;;;105.82;45.88;;;;;;;5.35;100.00;102080.94;4973752;28;20124;-73
2023/04/17 02:43:59;;;;;;;96.85;44.03;;;;;;;5.34;100.00;102076.59;4950547;28;20061;-71
2023/04/17 02:46:25;;;;;;;111.15;49.50;;;;;;;5.35;100.00;102082.75;4967377;28;20042;-73
2023/04/17 02:48:51;;;;;;;101.72;47.28;;;;;;;5.37;100.00;102089.63;4973403;28;20066;-74
2023/04/17 02:51:19;;;;;;;98.40;47.72;;;;;;;5.37;100.00;102097.59;4971984;28;20806;-72
2023/04/17 02:53:45;;;;;;;106.75;49.67;;;;;;;5.38;100.00;102093.13;4964519;28;20035;-73
2023/04/17 02:56:10;;;;;;;105.43;45.97;;;;;;;5.42;100.00;102097.28;4948144;28;20399;-74
2023/04/17 02:58:36;;;;;;;116.45;52.53;;;;;;;5.40;100.00;102094.72;4975085;28;20069;-74
2023/04/17 03:01:04;;;;;;;92.50;45.92;;;;;;;5.38;100.00;102101.06;4985702;28;20043;-72
2023/04/17 03:03:33;;;;;;;110.65;48.35;;;;;;;5.36;100.00;102092.38;4969713;28;20096;-74
2023/04/17 03:06:02;;;;;;;100.85;49.65;;;;;;;5.37;100.00;102094.09;4973413;28;20039;-74
2023/04/17 03:08:34;;;;;;;88.63;41.95;;;;;;;5.38;100.00;102091.31;4963370;28;20015;-70
2023/04/17 03:11:01;;;;;;;114.75;50.38;;;;;;;5.38;100.00;102091.31;4981533;28;20042;-71
2023/04/17 03:13:26;;;;;;;105.55;50.97;;;;;;;5.33;100.00;102096.06;4997904;28;20034;-74
2023/04/17 03:15:51;;;;;;;107.90;50.77;;;;;;;5.37;100.00;102094.09;4972855;28;20493;-74
2023/04/17 03:18:17;;;;;;;97.17;47.97;;;;;;;5.39;100.00;102098.34;4981163;28;20038;-74
2023/04/17 03:20:42;;;;;;;96.90;48.47;;;;;;;5.39;100.00;102092.19;4968365;28;20030;-73
2023/04/17 03:23:07;;;;;;;106.50;47.00;;;;;;;5.36;100.00;102087.94;4951416;28;20026;-74
2023/04/17 03:25:33;;;;;;;102.63;49.57;;;;;;;5.35;100.00;102088.03;4979666;28;20597;-74
2023/04/17 03:27:59;;;;;;;101.15;46.53;;;;;;;5.39;100.00;102102.78;4996579;28;20913;-72
2023/04/17 03:30:29;;;;;;;102.30;47.17;;;;;;;5.38;100.00;102101.06;4992488;28;20041;-71
2023/04/17 03:32:58;;;;;;;89.03;45.90;;;;;;;5.32;100.00;102091.72;4969815;28;20100;-74
2023/04/17 03:35:27;;;;;;;97.47;45.25;;;;;;;5.33;100.00;102098.72;4979540;28;20101;-74
2023/04/17 03:37:53;;;;;;;85.93;41.43;;;;;;;5.31;100.00;102097.94;4994262;28;20034;-74
2023/04/17 03:40:18;;;;;;;85.43;41.95;;;;;;;5.30;100.00;102093.63;4974608;28;20022;-74
2023/04/17 03:42:45;;;;;;;;;;;;;;;5.36;100.00;102093.25;4993611;28;20042;-71
2023/04/17 03:45:10;;;;;;;88.55;43.28;;;;;;;5.31;100.00;102089.16;4983761;28;19972;-72
2023/04/17 03:47:36;;;;;;;79.75;38.15;;;;;;;5.28;100.00;102087.56;4974833;28;20023;-74
2023/04/17 03:50:02;;;;;;;91.13;43.15;;;;;;;5.24;100.00;102078.97;4977424;28;20101;-73
2023/04/17 03:52:33;;;;;;;89.93;42.70;;;;;;;5.22;100.00;102082.63;4966151;28;20070;-74
2023/04/17 03:54:58;;;;;;;94.57;42.13;;;;;;;5.22;100.00;102085.28;4963559;28;20901;-73
2023/04/17 03:57:25;;;;;;;83.55;38.65;;;;;;;5.19;100.00;102080.19;4971090;28;20035;-71
2023/04/17 03:59:51;;;;;;;89.22;40.10;;;;;;;5.16;100.00;102085.69;4976415;28;20060;-74
2023/04/17 04:02:17;;;;;;;96.95;45.75;;;;;;;5.14;100.00;102071.69;4963736;28;20041;-72
2023/04/17 04:04:42;;;;;;;81.13;41.07;;;;;;;5.17;100.00;102088.22;4981691;28;20043;-73
2023/04/17 04:07:12;;;;;;;100.95;44.53;;;;;;;5.19;100.00;102074.88;4974082;28;20538;-74
2023/04/17 04:09:37;;;;;;;93.95;43.20;;;;;;;5.16;100.00;102077.72;4985371;28;20027;-74
2023/04/17 04:12:04;;;;;;;83.32;40.53;;;;;;;5.15;100.00;102076.00;4977422;28;20035;-72
2023/04/17 04:14:36;;;;;;;117.10;49.22;;;;;;;5.08;100.00;102079.06;4973529;28;20035;-74
2023/04/17 04:17:02;;;;;;;103.57;47.33;;;;;;;5.10;100.00;102083.41;4973466;28;20121;-74
2023/04/17 04:19:27;;;;;;;91.82;42.88;;;;;;;5.10;100.00;102080.75;4978655;28;20839;-74
2023/04/17 04:21:53;;;;;;;78.57;40.03;;;;;;;5.12;100.00;102094.75;4960966;28;20117;-73
2023/04/17 04:24:22;;;;;;;85.55;40.45;;;;;;;5.14;100.00;102087.56;4985533;28;20499;-74
2023/04/17 04:26:48;;;;;;;89.43;41.42;;;;;;;5.17;100.00;102103.25;4976584;28;20085;-74
2023/04/17 04:29:14;;;;;;;83.43;40.75;;;;;;;5.18;100.00;102102.31;4974973;28;20041;-73
2023/04/17 04:32:02;;;;;;;86.15;38.80;;;;;;;5.17;100.00;102097.97;4955106;28;20126;-72
2023/04/17 04:34:35;;;;;;;87.85;40.45;;;;;;;5.23;100.00;102105.53;4970033;28;20647;-74
2023/04/17 04:37:01;;;;;;;74.32;35.75;;;;;;;5.22;100.00;102098.53;4982580;28;20070;-74
2023/04/17 04:39:52;;;;;;;73.25;37.35;;;;;;;5.26;100.00;102113.28;4973095;28;20447;-74
2023/04/17 04:42:20;;;;;;;72.00;36.63;;;;;;;5.30;100.00;102112.16;4963416;28;20035;-73
2023/04/17 04:44:53;;;;;;;67.55;33.60;;;;;;;5.35;100.00;102107.41;4968931;28;20039;-72
2023/04/17 04:47:21;;;;;;;61.90;34.42;;;;;;;5.42;100.00;102108.72;4984389;28;20062;-74
2023/04/17 04:49:47;;;;;;;77.10;35.40;;;;;;;5.54;100.00;102108.91;4954965;28;20027;-73
2023/04/17 04:52:16;;;;;;;63.58;33.38;;;;;;;5.62;100.00;102115.44;4974119;28;20245;-74
2023/04/17 04:54:41;;;;;;;64.35;32.90;;;;;;;5.72;100.00;102113.06;4968481;28;20522;-73
2023/04/17 04:57:07;;;;;;;73.93;34.93;;;;;;;5.82;100.00;102122.13;4973365;28;20436;-74
2023/04/17 04:59:34;;;;;;;61.90;31.65;;;;;;;5.92;100.00;102122.38;4963304;28;20736;-73
2023/04/17 05:02:19;;;;;;;56.10;29.73;;;;;;;5.97;100.00;102119.47;4958775;28;20846;-71
2023/04/17 05:04:46;;;;;;;55.83;29.95;;;;;;;6.04;100.00;102116.34;4945322;28;20043;-74
2023/04/17 05:07:11;;;;;;;57.95;29.17;;;;;;;6.08;100.00;102114.31;4981566;28;20038;-75
2023/04/17 05:09:41;;;;;;;54.83;28.52;;;;;;;6.14;100.00;102116.56;4948997;28;20099;-73
2023/04/17 05:12:07;;;;;;;52.53;28.48;;;;;;;6.13;100.00;102109.56;4955568;28;20030;-75
2023/04/17 05:14:33;;;;;;;50.28;25.15;;;;;;;6.19;100.00;102118.94;4960648;28;20122;-73
2023/04/17 05:16:58;;;;;;;44.80;25.27;;;;;;;6.23;100.00;102112.47;4984455;28;20039;-75
2023/04/17 05:19:24;;;;;;;50.00;28.13;;;;;;;6.33;100.00;102117.06;4994840;28;20027;-71
2023/04/17 05:21:55;;;;;;;52.05;25.77;;;;;;;6.35;100.00;102109.00;4968136;28;20042;-73
2023/04/17 05:24:22;;;;;;;48.08;25.15;;;;;;;6.44;100.00;102112.84;4956365;28;20031;-74
2023/04/17 05:26:48;;;;;;;;;;;;;;;6.47;100.00;102104.69;4961980;28;20030;-74
2023/04/17 05:29:13;;;;;;;44.30;24.77;;;;;;;6.40;100.00;102100.75;4973696;28;20022;-73
2023/04/17 05:31:39;;;;;;;45.92;24.10;;;;;;;6.61;100.00;102109.06;4959956;28;20037;-71
2023/04/17 05:34:13;;;;;;;41.03;24.02;;;;;;;7.33;100.00;102126.22;4977100;28;20049;-75
2023/04/17 05:36:39;;;;;;;34.35;20.10;;;;;;;7.92;100.00;102119.41;4978097;28;20034;-74
2023/04/17 05:39:04;;;;;;;38.20;22.63;;;;;;;7.65;100.00;102080.53;4971509;28;20039;-72
2023/04/17 05:41:30;;;;;;;38.00;20.73;;;;;;;7.46;100.00;102064.22;4974288;23;20029;-81
2023/04/17 05:43:55;;;;;;;39.38;22.73;;;;;;;7.42;100.00;102047.63;5010190;28;20752;-82
2023/04/17 05:46:20;;;;;;;36.90;21.33;;;;;;;8.05;100.00;102077.63;5004887;28;20095;-81
2023/04/17 05:48:46;;;;;;;31.93;18.80;;;;;;;9.18;100.00;102099.28;4998269;28;20037;-81
2023/04/17 05:51:11;;;;;;;34.93;20.23;;;;;;;9.25;100.00;102026.72;4982501;28;20448;-83
2023/04/17 05:53:37;;;;;;;29.30;18.08;;;;;;;9.77;100.00;101986.97;4973575;28;20277;-82
2023/04/17 05:56:02;;;;;;;26.17;16.53;;;;;;;10.31;100.00;101959.31;4989846;28;20027;-82
2023/04/17 05:58:31;;;;;;;29.13;16.70;;;;;;;10.73;100.00;101867.59;4972954;28;20042;-83
2023/04/17 06:00:57;;;;;;;32.10;16.45;;;;;;;11.34;100.00;101784.53;4977306;28;20030;-84
2023/04/17 06:03:25;;;;;;;26.83;17.20;;;;;;;11.81;100.00;101663.34;4974143;28;20125;-81
2023/04/17 06:05:57;;;;;;;28.17;16.45;;;;;;;12.18;100.00;101515.25;4974414;28;20027;-85
2023/04/17 06:08:23;;;;;;;24.48;15.05;;;;;;;12.56;100.00;101422.94;4975795;28;20041;-83
2023/04/17 06:10:50;;;;;;;21.27;14.83;;;;;;;12.82;100.00;101191.63;4981668;28;20038;-80
2023/04/17 06:13:17;;;;;;;24.45;14.80;;;;;;;13.26;100.00;101102.81;4989433;28;20041;-84
2023/04/17 06:15:45;;;;;;;22.65;13.88;;;;;;;13.54;100.00;100962.94;4971624;28;20022;-81
2023/04/17 06:18:10;;;;;;;19.10;13.55;;;;;;;12.80;100.00;100700.66;4984777;28;20104;-82
2023/04/17 06:20:36;;;;;;;22.80;14.77;;;;;;;13.11;100.00;100746.19;4976419;28;20034;-84
2023/04/17 06:23:01;;;;;;;21.70;12.67;;;;;;;13.09;100.00;100585.53;4989485;28;20073;-84
2023/04/17 06:25:27;;;;;;;19.40;12.93;;;;;;;13.23;100.00;100593.78;4974480;28;20286;-83
2023/04/17 06:27:52;;;;;;;22.13;13.50;;;;;;;13.32;100.00;100425.63;4973927;28;20084;-84
2023/04/17 06:30:17;;;;;;;18.93;12.57;;;;;;;13.32;100.00;100423.78;4990744;28;20030;-83
2023/04/17 06:32:52;;;;;;;20.98;13.10;;;;;;;13.20;100.00;100181.31;4974413;28;20558;-84
2023/04/17 06:35:18;;;;;;;;;;;;;;;13.05;100.00;100388.59;4968616;28;20029;-82
2023/04/17 06:37:48;;;;;;;18.65;12.10;;;;;;;13.39;100.00;100359.50;4988923;28;19917;-84
2023/04/17 06:40:14;;;;;;;22.55;13.02;;;;;;;13.43;100.00;100302.63;4989858;28;20104;-80
2023/04/17 06:42:39;;;;;;;21.67;11.97;;;;;;;13.50;100.00;100233.78;4972651;28;20038;-81
2023/04/17 06:45:10;;;;;;;20.40;12.07;;;;;;;13.16;100.00;100271.16;4989054;28;20114;-80
2023/04/17 06:47:35;;;;;;;;;;;;;;;12.98;100.00;100277.00;4972049;28;20041;-82
2023/04/17 06:50:01;;;;;;;22.73;13.40;;;;;;;13.04;100.00;100293.13;4973184;28;20296;-84
2023/04/17 06:52:26;;;;;;;23.30;14.17;;;;;;;13.22;100.00;100291.88;4965929;28;20499;-83
2023/04/17 06:54:55;;;;;;;21.67;11.77;;;;;;;13.18;100.00;100389.75;4982069;28;20050;-82
2023/04/17 06:57:21;;;;;;;20.25;12.75;;;;;;;13.12;100.00;100323.53;4979657;28;20035;-82
2023/04/17 06:59:47;;;;;;;19.92;11.80;;;;;;;13.46;100.00;100404.16;4991221;28;20117;-84
2023/04/17 07:02:12;;;;;;;18.95;12.82;;;;;;;13.16;100.00;100241.69;4983715;28;20476;-82
2023/04/17 07:04:37;;;;;;;18.57;11.87;;;;;;;13.57;100.00;100393.94;4981118;28;20045;-84
2023/04/17 07:07:03;;;;;;;24.20;12.57;;;;;;;13.04;98.69;100236.88;4989717;28;20027;-83
2023/04/17 07:09:28;;;;;;;21.53;12.43;;;;;;;13.40;99.76;100417.47;4988458;28;20034;-83
2023/04/17 07:11:53;;;;;;;18.57;12.70;;;;;;;13.12;99.85;100393.19;4972800;28;20037;-83
2023/04/17 07:14:19;;;;;;;21.33;13.20;;;;;;;12.91;100.00;100440.34;4990093;28;20066;-80
2023/04/17 07:16:44;;;;;;;18.80;12.03;;;;;;;13.47;99.27;100505.03;4972064;28;20085;-81
2023/04/17 07:19:09;;;;;;;19.00;12.67;;;;;;;13.24;99.19;100510.47;4976303;28;20408;-82
2023/04/17 07:21:35;;;;;;;22.10;13.30;;;;;;;13.28;99.01;100508.28;4991009;28;20488;-82
2023/04/17 07:24:00;;;;;;;21.10;12.80;;;;;;;13.39;98.44;100539.16;4990196;28;20035;-83
2023/04/17 07:26:26;;;;;;;19.07;13.60;;;;;;;13.35;98.49;100532.53;4986327;28;20022;-84
2023/04/17 07:28:51;;;;;;;20.90;13.43;;;;;;;13.24;98.61;100576.66;4994222;28;20155;-81
2023/04/17 07:31:17;;;;;;;22.10;15.17;;;;;;;13.50;98.08;100595.00;4983132;28;20034;-83
2023/04/17 07:33:42;;;;;;;18.75;12.82;;;;;;;13.30;97.99;100568.75;4987659;28;20512;-79
2023/04/17 07:36:10;;;;;;;23.73;14.93;;;;;;;13.36;97.09;100536.84;4979567;28;20034;-84
2023/04/17 07:38:35;;;;;;;24.85;15.73;;;;;;;13.27;98.72;100697.81;4969508;28;20037;-83
2023/04/17 07:41:00;;;;;;;24.88;16.85;;;;;;;11.58;100.00;100529.88;4970965;28;20555;-82
2023/04/17 07:43:27;;;;;;;26.57;16.70;;;;;;;10.67;100.00;100845.34;4979797;28;20068;-83
2023/04/17 07:45:52;;;;;;;27.70;17.15;;;;;;;10.77;100.00;101380.22;4988244;28;20040;-84
2023/04/17 07:48:18;;;;;;;28.73;18.35;;;;;;;11.01;100.00;101400.19;4977910;28;20030;-82
2023/04/17 07:50:44;;;;;;;31.30;17.05;;;;;;;11.60;100.00;101511.13;4969655;28;20987;-83
2023/04/17 07:53:09;;;;;;;29.17;16.75;;;;;;;12.12;100.00;101575.56;4981095;28;20671;-80
2023/04/17 07:55:34;;;;;;;28.90;16.90;;;;;;;12.34;100.00;101444.88;4990839;28;20030;-81
2023/04/17 07:58:02;;;;;;;28.38;17.10;;;;;;;12.87;100.00;101443.84;4987669;28;20085;-83
2023/04/17 08:00:32;;;;;;;27.52;16.15;;;;;;;12.37;100.00;101235.75;4971540;28;20046;-83
2023/04/17 08:02:57;;;;;;;30.08;17.90;;;;;;;12.92;100.00;101331.66;4986272;28;20110;-83
2023/04/17 08:05:23;;;;;;;27.38;17.33;;;;;;;13.61;100.00;101439.59;4970485;28;20109;-84
2023/04/17 08:07:49;;;;;;;29.85;16.48;;;;;;;13.65;100.00;101155.69;4988761;28;20634;-80
2023/04/17 08:10:15;;;;;;;30.10;16.70;;;;;;;14.25;100.00;101275.13;4970748;28;20465;-80
2023/04/17 08:12:40;;;;;;;27.30;17.63;;;;;;;14.40;100.00;101073.75;4987612;28;20038;-80
2023/04/17 08:15:06;;;;;;;24.77;17.03;;;;;;;14.25;100.00;100968.97;4988152;28;20109;-84
2023/04/17 08:17:32;;;;;;;26.75;17.13;;;;;;;14.17;100.00;100956.44;4973490;28;20147;-84
2023/04/17 08:19:59;;;;;;;29.50;19.65;;;;;;;14.35;97.76;100846.84;4973075;28;20481;-83
2023/04/17 08:22:27;;;;;;;31.98;20.17;;;;;;;14.72;97.60;100928.38;4991245;28;20038;-82
2023/04/17 08:24:56;;;;;;;34.05;19.63;;;;;;;14.84;93.79;100688.72;4973017;28;20038;-81
2023/04/17 08:27:24;;;;;;;32.92;19.17;;;;;;;15.30;91.66;100629.13;4972702;28;20019;-82
2023/04/17 08:29:52;;;;;;;30.70;19.08;;;;;;;14.43;90.19;100321.34;4979656;28;20043;-82
2023/04/17 08:32:19;;;;;;;25.85;18.40;;;;;;;15.08;89.29;100478.63;4971703;28;20057;-83
2023/04/17 08:34:44;;;;;;;32.05;17.92;;;;;;;15.83;88.44;100597.19;4999600;28;20062;-82
2023/04/17 08:37:10;;;;;;;25.08;16.73;;;;;;;16.45;86.44;100552.16;4993978;28;20029;-84
2023/04/17 08:39:35;;;;;;;30.63;17.90;;;;;;;16.69;84.08;100399.78;4990742;28;20031;-81
2023/04/17 08:42:06;;;;;;;29.90;16.70;;;;;;;16.86;81.60;100263.53;4994265;28;20041;-82
2023/04/17 08:44:32;;;;;;;28.92;16.77;;;;;;;16.20;79.65;99919.88;4977364;28;20471;-84
2023/04/17 08:46:57;;;;;;;28.63;17.17;;;;;;;15.61;77.20;99572.13;4975760;28;20109;-83
2023/04/17 08:49:33;;;;;;;23.80;16.27;;;;;;;15.79;80.65;100143.75;4991500;28;20058;-85
2023/04/17 08:52:02;;;;;;;23.08;15.07;;;;;;;16.51;79.21;100167.91;4975390;28;20046;-84
2023/04/17 08:54:28;;;;;;;25.05;16.00;;;;;;;13.97;75.88;99039.22;4968308;28;20118;-84
2023/04/17 08:56:53;;;;;;;25.17;14.30;;;;;;;13.92;80.53;99901.97;4980646;28;20806;-80
2023/04/17 08:59:19;;;;;;;25.63;15.90;;;;;;;14.09;80.98;100106.41;4973476;28;20313;-82
2023/04/17 09:02:05;;;;;;;25.80;14.17;;;;;;;15.31;82.20;100585.06;4975120;28;20041;-81
2023/04/17 09:04:38;;;;;;;20.75;14.32;;;;;;;14.52;78.83;99946.81;4993575;28;20084;-84
2023/04/17 09:07:05;;;;;;;27.17;13.80;;;;;;;13.58;78.29;99734.00;5004669;28;20030;-80
2023/04/17 09:09:49;;;;;;;21.95;12.85;;;;;;;13.93;76.99;99694.34;4994117;28;20381;-82
2023/04/17 09:12:15;;;;;;;22.58;12.48;;;;;;;14.87;75.61;99876.72;5003412;28;20083;-82
2023/04/17 09:14:40;;;;;;;24.63;11.93;;;;;;;15.05;71.69;99513.94;5010304;28;20042;-82
2023/04/17 09:17:06;;;;;;;15.63;10.27;;;;;;;14.69;69.09;99010.53;4971035;28;20038;-81
2023/04/17 09:19:31;;;;;;;15.80;10.15;;;;;;;13.60;66.74;98549.44;4975915;28;20035;-84
2023/04/17 09:22:16;;;;;;;19.13;10.73;;;;;;;13.67;66.92;98728.94;4976453;28;20034;-83
2023/04/17 09:24:43;;;;;;;18.85;10.07;;;;;;;15.01;66.85;99251.25;4977872;28;20297;-83
2023/04/17 09:27:22;;;;;;;16.65;10.30;;;;;;;15.28;63.42;98878.00;4977763;28;20026;-82
2023/04/17 09:29:55;;;;;;;15.77;9.90;;;;;;;14.79;62.99;98762.81;4980384;28;20469;-83
2023/04/17 09:32:21;;;;;;;17.20;9.90;;;;;;;16.01;61.45;99005.59;4997039;28;20044;-80
2023/04/17 09:34:46;;;;;;;15.37;9.53;;;;;;;14.54;57.05;97879.81;5000636;28;20113;-82
2023/04/17 09:37:12;;;;;;;17.70;8.90;;;;;;;14.91;58.80;98443.91;4990367;28;20197;-83
2023/04/17 09:39:39;;;;;;;16.10;9.60;;;;;;;15.20;58.45;98535.13;4972909;28;20566;-83
2023/04/17 09:42:05;;;;;;;15.90;8.82;;;;;;;16.04;57.36;98639.88;4976728;28;20038;-83
2023/04/17 09:44:30;;;;;;;13.65;7.90;;;;;;;15.03;54.98;97952.09;4990357;28;20065;-83
2023/04/17 09:46:57;;;;;;;10.88;7.22;;;;;;;16.22;56.01;98738.38;4998629;28;20027;-84
2023/04/17 09:49:37;;;;;;;12.20;7.47;;;;;;;17.08;54.10;98731.59;4990447;28;20034;-83
2023/04/17 09:52:03;;;;;;;12.80;7.07;;;;;;;17.64;54.11;98974.97;4973893;28;20046;-84
2023/04/17 09:54:36;;;;;;;14.67;7.53;;;;;;;17.88;52.07;98723.69;4969021;28;20128;-85
2023/04/17 09:57:03;;;;;;;13.13;7.60;;;;;;;17.02;51.53;98392.97;4974421;28;20046;-84
2023/04/17 09:59:29;;;;;;;10.88;7.35;;;;;;;17.64;51.24;98637.69;4989842;28;20019;-83
2023/04/17 10:01:55;;;;;;;17.70;7.90;;;;;;;17.20;50.30;98281.97;5000320;28;20069;-84
2023/04/17 10:04:21;;;;;;;15.23;7.97;;;;;;;18.09;51.02;98819.94;4984657;28;20038;-84
2023/04/17 10:06:47;;;;;;;10.23;6.88;;;;;;;18.23;49.06;98517.03;4982552;28;20034;-83
2023/04/17 10:09:13;;;;;;;;;;;;;;;18.49;49.12;98686.19;4974743;28;20038;-83
2023/04/17 10:11:41;;;;;;;12.85;7.60;;;;;;;18.71;48.78;98717.66;4999197;28;20750;-83
2023/04/17 10:14:17;;;;;;;16.00;8.20;;;;;;;18.61;48.80;98620.31;4971149;28;20041;-84
2023/04/17 10:16:42;;;;;;;;;;;;;;;18.56;49.44;98759.72;4988867;28;20046;-83
2023/04/17 10:19:28;;;;;;;14.38;7.65;;;;;;;18.66;48.69;98712.19;4996994;28;19914;-84
2023/04/17 10:22:18;;;;;;;13.10;9.10;;;;;;;18.77;49.00;98866.09;4987803;28;20038;-81
2023/04/17 10:24:51;;;;;;;17.23;7.43;;;;;;;18.07;48.38;98594.47;4990165;28;20129;-79
2023/04/17 10:27:25;;;;;;;12.18;7.65;;;;;;;18.47;49.17;98926.16;4991655;28;20037;-82
2023/04/17 10:29:59;;;;;;;17.08;8.32;;;;;;;17.80;49.67;98786.22;4970994;28;20069;-82
2023/04/17 10:32:28;;;;;;;13.30;7.53;;;;;;;18.01;49.93;98890.66;4979605;28;20124;-80
2023/04/17 10:34:56;;;;;;;15.00;8.85;;;;;;;17.19;48.71;98264.19;4992174;28;20782;-84
2023/04/17 10:37:47;;;;;;;13.45;8.30;;;;;;;18.05;50.36;99091.59;4978240;28;20030;-82
2023/04/17 10:40:23;;;;;;;16.20;8.98;;;;;;;17.71;49.58;98769.69;4991790;28;20504;-84
2023/04/17 10:43:22;;;;;;;18.60;9.18;;;;;;;17.24;50.63;98854.75;4988555;28;20374;-79
2023/04/17 10:46:04;;;;;;;14.00;8.65;;;;;;;18.17;49.88;99136.53;4978202;28;20098;-82
2023/04/17 10:48:33;;;;;;;15.45;8.38;;;;;;;16.08;50.06;98146.84;4989963;28;20037;-83
2023/04/17 10:51:00;;;;;;;11.38;7.88;;;;;;;17.61;51.57;99318.19;4990235;28;20045;-82
2023/04/17 10:53:43;;;;;;;11.00;8.07;;;;;;;16.06;49.10;98130.13;4973069;28;20034;-84
2023/04/17 10:56:10;;;;;;;13.35;8.00;;;;;;;17.57;49.15;98882.63;4984039;28;20057;-83
2023/04/17 10:58:37;;;;;;;17.48;8.70;;;;;;;17.69;47.47;98510.88;4976995;28;20026;-82
2023/04/17 11:01:08;;;;;;;11.57;7.65;;;;;;;17.93;48.05;98815.50;4982432;28;20053;-83
2023/04/17 11:03:36;;;;;;;16.30;8.18;;;;;;;16.44;47.22;97862.38;4971812;28;20107;-81
2023/04/17 11:06:01;;;;;;;14.95;8.02;;;;;;;17.28;48.67;98637.44;4973168;28;20033;-85
2023/04/17 11:08:27;;;;;;;15.20;8.18;;;;;;;18.17;47.58;98890.75;4992206;28;20034;-83
2023/04/17 11:10:55;;;;;;;15.30;8.13;;;;;;;17.42;44.02;97717.28;4988126;28;20046;-83
2023/04/17 11:13:20;;;;;;;15.05;8.18;;;;;;;17.48;43.93;97752.03;4980454;28;20041;-82